sensor_id;sensor_type;location;lat;lon;timestamp;P1;durP1;ratioP1;P2;durP2;ratioP2
40453;SDS011;26160;51.858;4.398;2024-02-16T00:02:06;5.13;;;3.08;;
40453;SDS011;26160;51.858;4.398;2024-02-16T00:04:37;4.95;;;3.10;;
40453;SDS011;26160;51.858;4.398;2024-02-16T00:07:05;6.65;;;3.33;;
40453;SDS011;26160;51.858;4.398;2024-02-16T00:09:32;5.07;;;2.90;;
40453;SDS011;26160;51.858;4.398;2024-02-16T00:11:58;8.70;;;3.38;;
40453;SDS011;26160;51.858;4.398;2024-02-16T00:14:25;6.35;;;3.20;;
40453;SDS011;26160;51.858;4.398;2024-02-16T00:17:03;6.15;;;3.13;;
40453;SDS011;26160;51.858;4.398;2024-02-16T00:19:37;12.80;;;3.33;;
40453;SDS011;26160;51.858;4.398;2024-02-16T00:22:04;6.78;;;3.90;;
40453;SDS011;26160;51.858;4.398;2024-02-16T00:24:33;8.80;;;3.60;;
40453;SDS011;26160;51.858;4.398;2024-02-16T00:26:59;6.13;;;3.92;;
40453;SDS011;26160;51.858;4.398;2024-02-16T00:29:31;7.38;;;3.55;;
40453;SDS011;26160;51.858;4.398;2024-02-16T00:31:59;8.70;;;3.55;;
40453;SDS011;26160;51.858;4.398;2024-02-16T00:34:29;6.63;;;3.17;;
40453;SDS011;26160;51.858;4.398;2024-02-16T00:36:55;6.75;;;3.42;;
40453;SDS011;26160;51.858;4.398;2024-02-16T00:39:23;7.88;;;3.38;;
40453;SDS011;26160;51.858;4.398;2024-02-16T00:41:50;6.60;;;3.90;;
40453;SDS011;26160;51.858;4.398;2024-02-16T00:44:18;7.63;;;3.33;;
40453;SDS011;26160;51.858;4.398;2024-02-16T00:46:56;4.95;;;3.42;;
40453;SDS011;26160;51.858;4.398;2024-02-16T00:49:26;5.22;;;3.47;;
40453;SDS011;26160;51.858;4.398;2024-02-16T00:51:55;8.07;;;3.40;;
40453;SDS011;26160;51.858;4.398;2024-02-16T00:54:23;5.97;;;3.35;;
40453;SDS011;26160;51.858;4.398;2024-02-16T00:56:51;6.60;;;3.38;;
40453;SDS011;26160;51.858;4.398;2024-02-16T00:59:18;5.70;;;3.42;;
40453;SDS011;26160;51.858;4.398;2024-02-16T01:01:47;6.22;;;3.20;;
40453;SDS011;26160;51.858;4.398;2024-02-16T01:04:15;8.88;;;3.58;;
40453;SDS011;26160;51.858;4.398;2024-02-16T01:06:41;4.30;;;3.25;;
40453;SDS011;26160;51.858;4.398;2024-02-16T01:09:15;4.32;;;3.08;;
40453;SDS011;26160;51.858;4.398;2024-02-16T01:11:43;5.53;;;3.20;;
40453;SDS011;26160;51.858;4.398;2024-02-16T01:14:14;5.97;;;3.20;;
40453;SDS011;26160;51.858;4.398;2024-02-16T01:16:41;7.38;;;3.35;;
40453;SDS011;26160;51.858;4.398;2024-02-16T01:19:12;4.15;;;2.80;;
40453;SDS011;26160;51.858;4.398;2024-02-16T01:21:43;6.28;;;3.63;;
40453;SDS011;26160;51.858;4.398;2024-02-16T01:24:13;6.97;;;3.30;;
40453;SDS011;26160;51.858;4.398;2024-02-16T01:26:43;4.95;;;3.50;;
40453;SDS011;26160;51.858;4.398;2024-02-16T01:29:11;6.57;;;3.63;;
40453;SDS011;26160;51.858;4.398;2024-02-16T01:31:38;8.60;;;3.72;;
40453;SDS011;26160;51.858;4.398;2024-02-16T01:34:04;7.78;;;3.70;;
40453;SDS011;26160;51.858;4.398;2024-02-16T01:36:30;6.53;;;3.70;;
40453;SDS011;26160;51.858;4.398;2024-02-16T01:38:57;6.30;;;3.50;;
40453;SDS011;26160;51.858;4.398;2024-02-16T01:41:24;7.80;;;4.07;;
40453;SDS011;26160;51.858;4.398;2024-02-16T01:43:54;6.57;;;3.60;;
40453;SDS011;26160;51.858;4.398;2024-02-16T01:46:28;6.57;;;3.45;;
40453;SDS011;26160;51.858;4.398;2024-02-16T01:49:07;6.20;;;3.35;;
40453;SDS011;26160;51.858;4.398;2024-02-16T01:51:33;5.72;;;3.78;;
40453;SDS011;26160;51.858;4.398;2024-02-16T01:54:01;5.03;;;3.67;;
40453;SDS011;26160;51.858;4.398;2024-02-16T01:56:28;5.88;;;3.95;;
40453;SDS011;26160;51.858;4.398;2024-02-16T01:58:57;5.40;;;4.13;;
40453;SDS011;26160;51.858;4.398;2024-02-16T02:04:04;5.75;;;3.45;;
40453;SDS011;26160;51.858;4.398;2024-02-16T02:06:44;8.48;;;4.07;;
40453;SDS011;26160;51.858;4.398;2024-02-16T02:09:14;6.00;;;4.30;;
40453;SDS011;26160;51.858;4.398;2024-02-16T02:11:55;6.20;;;3.85;;
40453;SDS011;26160;51.858;4.398;2024-02-16T02:14:42;6.07;;;3.93;;
40453;SDS011;26160;51.858;4.398;2024-02-16T02:17:11;7.63;;;4.13;;
40453;SDS011;26160;51.858;4.398;2024-02-16T02:19:46;6.43;;;3.90;;
40453;SDS011;26160;51.858;4.398;2024-02-16T02:22:22;7.93;;;4.00;;
40453;SDS011;26160;51.858;4.398;2024-02-16T02:25:18;9.30;;;3.63;;
40453;SDS011;26160;51.858;4.398;2024-02-16T02:27:58;6.13;;;3.92;;
40453;SDS011;26160;51.858;4.398;2024-02-16T02:30:54;5.82;;;3.67;;
40453;SDS011;26160;51.858;4.398;2024-02-16T02:39:16;7.90;;;4.10;;
40453;SDS011;26160;51.858;4.398;2024-02-16T02:41:44;7.15;;;4.00;;
40453;SDS011;26160;51.858;4.398;2024-02-16T02:44:13;8.07;;;4.00;;
40453;SDS011;26160;51.858;4.398;2024-02-16T02:47:08;5.50;;;3.37;;
40453;SDS011;26160;51.858;4.398;2024-02-16T02:49:57;5.20;;;3.60;;
40453;SDS011;26160;51.858;4.398;2024-02-16T02:52:39;4.50;;;3.63;;
40453;SDS011;26160;51.858;4.398;2024-02-16T02:55:18;6.67;;;3.97;;
40453;SDS011;26160;51.858;4.398;2024-02-16T02:57:50;5.80;;;3.35;;
40453;SDS011;26160;51.858;4.398;2024-02-16T03:00:19;6.13;;;3.33;;
40453;SDS011;26160;51.858;4.398;2024-02-16T03:02:58;6.43;;;3.53;;
40453;SDS011;26160;51.858;4.398;2024-02-16T03:12:19;7.97;;;3.67;;
40453;SDS011;26160;51.858;4.398;2024-02-16T03:14:59;7.15;;;3.70;;
40453;SDS011;26160;51.858;4.398;2024-02-16T03:17:30;6.53;;;3.90;;
40453;SDS011;26160;51.858;4.398;2024-02-16T03:20:12;5.65;;;3.15;;
40453;SDS011;26160;51.858;4.398;2024-02-16T03:23:25;4.40;;;3.35;;
40453;SDS011;26160;51.858;4.398;2024-02-16T03:26:06;5.63;;;3.58;;
40453;SDS011;26160;51.858;4.398;2024-02-16T03:28:51;6.10;;;3.43;;
40453;SDS011;26160;51.858;4.398;2024-02-16T03:31:26;7.50;;;3.83;;
40453;SDS011;26160;51.858;4.398;2024-02-16T03:34:16;5.30;;;3.42;;
40453;SDS011;26160;51.858;4.398;2024-02-16T03:36:54;9.43;;;3.77;;
40453;SDS011;26160;51.858;4.398;2024-02-16T03:39:32;5.93;;;4.10;;
40453;SDS011;26160;51.858;4.398;2024-02-16T03:42:22;9.02;;;3.90;;
40453;SDS011;26160;51.858;4.398;2024-02-16T03:45:26;8.20;;;3.83;;
40453;SDS011;26160;51.858;4.398;2024-02-16T03:48:01;4.60;;;3.50;;
40453;SDS011;26160;51.858;4.398;2024-02-16T03:50:47;7.90;;;3.83;;
40453;SDS011;26160;51.858;4.398;2024-02-16T03:53:24;8.57;;;4.15;;
40453;SDS011;26160;51.858;4.398;2024-02-16T03:56:17;7.47;;;4.10;;
40453;SDS011;26160;51.858;4.398;2024-02-16T03:58:54;8.50;;;4.30;;
40453;SDS011;26160;51.858;4.398;2024-02-16T04:01:24;6.17;;;3.60;;
40453;SDS011;26160;51.858;4.398;2024-02-16T04:04:08;7.73;;;3.63;;
40453;SDS011;26160;51.858;4.398;2024-02-16T04:06:50;8.32;;;3.72;;
40453;SDS011;26160;51.858;4.398;2024-02-16T04:09:27;6.30;;;4.07;;
40453;SDS011;26160;51.858;4.398;2024-02-16T04:12:24;7.63;;;4.30;;
40453;SDS011;26160;51.858;4.398;2024-02-16T04:17:51;6.37;;;3.70;;
40453;SDS011;26160;51.858;4.398;2024-02-16T04:20:38;5.85;;;4.03;;
40453;SDS011;26160;51.858;4.398;2024-02-16T04:23:30;7.73;;;4.10;;
40453;SDS011;26160;51.858;4.398;2024-02-16T04:26:09;8.33;;;3.43;;
40453;SDS011;26160;51.858;4.398;2024-02-16T04:28:42;6.37;;;3.87;;
40453;SDS011;26160;51.858;4.398;2024-02-16T04:31:31;11.90;;;4.03;;
40453;SDS011;26160;51.858;4.398;2024-02-16T04:37:25;6.60;;;3.78;;
40453;SDS011;26160;51.858;4.398;2024-02-16T04:40:25;6.20;;;3.43;;
40453;SDS011;26160;51.858;4.398;2024-02-16T04:43:04;8.50;;;3.72;;
40453;SDS011;26160;51.858;4.398;2024-02-16T04:45:40;5.30;;;3.57;;
40453;SDS011;26160;51.858;4.398;2024-02-16T04:48:32;6.90;;;3.80;;
40453;SDS011;26160;51.858;4.398;2024-02-16T04:51:28;7.55;;;4.18;;
40453;SDS011;26160;51.858;4.398;2024-02-16T04:54:15;9.27;;;3.70;;
40453;SDS011;26160;51.858;4.398;2024-02-16T04:56:59;8.65;;;4.18;;
40453;SDS011;26160;51.858;4.398;2024-02-16T04:59:36;8.70;;;3.97;;
40453;SDS011;26160;51.858;4.398;2024-02-16T05:02:18;9.37;;;4.77;;
40453;SDS011;26160;51.858;4.398;2024-02-16T05:05:06;10.55;;;4.28;;
40453;SDS011;26160;51.858;4.398;2024-02-16T05:07:57;7.32;;;4.93;;
40453;SDS011;26160;51.858;4.398;2024-02-16T05:10:43;8.60;;;4.18;;
40453;SDS011;26160;51.858;4.398;2024-02-16T05:19:36;6.63;;;4.22;;
40453;SDS011;26160;51.858;4.398;2024-02-16T05:22:41;5.07;;;3.63;;
40453;SDS011;26160;51.858;4.398;2024-02-16T05:25:32;7.00;;;4.07;;
40453;SDS011;26160;51.858;4.398;2024-02-16T05:28:25;7.90;;;4.60;;
40453;SDS011;26160;51.858;4.398;2024-02-16T05:31:17;6.57;;;4.03;;
40453;SDS011;26160;51.858;4.398;2024-02-16T05:34:22;7.10;;;4.18;;
40453;SDS011;26160;51.858;4.398;2024-02-16T05:37:08;8.63;;;4.85;;
40453;SDS011;26160;51.858;4.398;2024-02-16T05:39:46;7.53;;;4.57;;
40453;SDS011;26160;51.858;4.398;2024-02-16T05:45:51;11.10;;;5.15;;
40453;SDS011;26160;51.858;4.398;2024-02-16T05:48:32;9.48;;;4.22;;
40453;SDS011;26160;51.858;4.398;2024-02-16T05:51:22;6.63;;;4.53;;
40453;SDS011;26160;51.858;4.398;2024-02-16T05:54:12;9.05;;;4.63;;
40453;SDS011;26160;51.858;4.398;2024-02-16T05:57:15;8.45;;;4.68;;
40453;SDS011;26160;51.858;4.398;2024-02-16T05:59:59;9.82;;;4.65;;
40453;SDS011;26160;51.858;4.398;2024-02-16T06:05:59;8.90;;;5.20;;
40453;SDS011;26160;51.858;4.398;2024-02-16T06:08:57;10.90;;;4.75;;
40453;SDS011;26160;51.858;4.398;2024-02-16T06:11:47;8.13;;;5.15;;
40453;SDS011;26160;51.858;4.398;2024-02-16T06:14:42;8.32;;;4.55;;
40453;SDS011;26160;51.858;4.398;2024-02-16T06:17:32;9.52;;;4.63;;
40453;SDS011;26160;51.858;4.398;2024-02-16T06:20:12;10.30;;;4.80;;
40453;SDS011;26160;51.858;4.398;2024-02-16T06:22:51;6.15;;;4.38;;
40453;SDS011;26160;51.858;4.398;2024-02-16T06:25:41;9.00;;;4.72;;
40453;SDS011;26160;51.858;4.398;2024-02-16T06:28:33;9.52;;;4.05;;
40453;SDS011;26160;51.858;4.398;2024-02-16T06:31:18;7.38;;;4.70;;
40453;SDS011;26160;51.858;4.398;2024-02-16T06:34:00;7.80;;;4.78;;
40453;SDS011;26160;51.858;4.398;2024-02-16T06:36:40;9.73;;;4.78;;
40453;SDS011;26160;51.858;4.398;2024-02-16T06:39:25;8.32;;;4.80;;
40453;SDS011;26160;51.858;4.398;2024-02-16T06:41:58;7.80;;;4.90;;
40453;SDS011;26160;51.858;4.398;2024-02-16T06:44:35;8.38;;;4.68;;
40453;SDS011;26160;51.858;4.398;2024-02-16T06:47:25;8.57;;;4.30;;
40453;SDS011;26160;51.858;4.398;2024-02-16T06:49:59;8.00;;;4.35;;
40453;SDS011;26160;51.858;4.398;2024-02-16T06:52:48;8.85;;;4.70;;
40453;SDS011;26160;51.858;4.398;2024-02-16T06:59:03;8.27;;;4.70;;
40453;SDS011;26160;51.858;4.398;2024-02-16T07:01:46;8.80;;;5.35;;
40453;SDS011;26160;51.858;4.398;2024-02-16T07:08:10;7.22;;;4.95;;
40453;SDS011;26160;51.858;4.398;2024-02-16T07:14:01;9.40;;;5.10;;
40453;SDS011;26160;51.858;4.398;2024-02-16T07:19:19;7.22;;;4.57;;
40453;SDS011;26160;51.858;4.398;2024-02-16T07:25:19;6.65;;;4.40;;
40453;SDS011;26160;51.858;4.398;2024-02-16T07:28:00;8.27;;;4.82;;
40453;SDS011;26160;51.858;4.398;2024-02-16T07:30:40;7.15;;;4.25;;
40453;SDS011;26160;51.858;4.398;2024-02-16T07:33:16;8.40;;;4.85;;
40453;SDS011;26160;51.858;4.398;2024-02-16T07:36:06;7.82;;;4.97;;
40453;SDS011;26160;51.858;4.398;2024-02-16T07:39:00;7.18;;;4.90;;
40453;SDS011;26160;51.858;4.398;2024-02-16T07:44:49;8.05;;;5.32;;
40453;SDS011;26160;51.858;4.398;2024-02-16T07:47:42;8.43;;;4.80;;
40453;SDS011;26160;51.858;4.398;2024-02-16T07:50:29;8.15;;;4.60;;
40453;SDS011;26160;51.858;4.398;2024-02-16T07:56:30;7.18;;;4.30;;
40453;SDS011;26160;51.858;4.398;2024-02-16T08:02:11;8.27;;;4.53;;
40453;SDS011;26160;51.858;4.398;2024-02-16T08:08:49;6.32;;;4.45;;
40453;SDS011;26160;51.858;4.398;2024-02-16T08:12:19;7.57;;;4.20;;
40453;SDS011;26160;51.858;4.398;2024-02-16T08:15:34;9.00;;;4.88;;
40453;SDS011;26160;51.858;4.398;2024-02-16T08:26:19;7.63;;;4.63;;
40453;SDS011;26160;51.858;4.398;2024-02-16T08:29:42;6.78;;;4.50;;
40453;SDS011;26160;51.858;4.398;2024-02-16T08:32:42;8.52;;;4.38;;
40453;SDS011;26160;51.858;4.398;2024-02-16T08:35:18;8.02;;;4.38;;
40453;SDS011;26160;51.858;4.398;2024-02-16T08:44:21;7.55;;;4.43;;
40453;SDS011;26160;51.858;4.398;2024-02-16T09:39:10;14.93;;;8.60;;
40453;SDS011;26160;51.858;4.398;2024-02-16T09:44:31;15.02;;;9.52;;
40453;SDS011;26160;51.858;4.398;2024-02-16T09:47:03;17.30;;;9.55;;
40453;SDS011;26160;51.858;4.398;2024-02-16T09:49:32;20.73;;;10.32;;
40453;SDS011;26160;51.858;4.398;2024-02-16T09:52:02;20.00;;;11.55;;
40453;SDS011;26160;51.858;4.398;2024-02-16T09:54:32;24.65;;;12.02;;
40453;SDS011;26160;51.858;4.398;2024-02-16T09:57:01;22.13;;;12.30;;
40453;SDS011;26160;51.858;4.398;2024-02-16T09:59:30;26.73;;;12.45;;
40453;SDS011;26160;51.858;4.398;2024-02-16T10:02:19;25.48;;;12.40;;
40453;SDS011;26160;51.858;4.398;2024-02-16T10:04:49;23.50;;;12.88;;
40453;SDS011;26160;51.858;4.398;2024-02-16T10:07:16;23.02;;;12.77;;
40453;SDS011;26160;51.858;4.398;2024-02-16T10:09:42;23.10;;;12.48;;
40453;SDS011;26160;51.858;4.398;2024-02-16T10:12:08;25.52;;;13.93;;
40453;SDS011;26160;51.858;4.398;2024-02-16T10:14:35;22.55;;;13.80;;
40453;SDS011;26160;51.858;4.398;2024-02-16T10:17:02;27.98;;;13.88;;
40453;SDS011;26160;51.858;4.398;2024-02-16T10:19:32;23.00;;;13.13;;
40453;SDS011;26160;51.858;4.398;2024-02-16T10:22:09;24.58;;;14.00;;
40453;SDS011;26160;51.858;4.398;2024-02-16T10:24:36;22.63;;;13.55;;
40453;SDS011;26160;51.858;4.398;2024-02-16T10:27:04;24.13;;;14.10;;
40453;SDS011;26160;51.858;4.398;2024-02-16T10:29:34;26.77;;;13.80;;
40453;SDS011;26160;51.858;4.398;2024-02-16T10:32:01;20.15;;;12.45;;
40453;SDS011;26160;51.858;4.398;2024-02-16T10:34:28;24.80;;;14.02;;
40453;SDS011;26160;51.858;4.398;2024-02-16T10:36:55;24.25;;;12.90;;
40453;SDS011;26160;51.858;4.398;2024-02-16T10:39:24;27.88;;;13.77;;
40453;SDS011;26160;51.858;4.398;2024-02-16T10:41:51;21.70;;;13.82;;
40453;SDS011;26160;51.858;4.398;2024-02-16T10:44:18;20.55;;;12.95;;
40453;SDS011;26160;51.858;4.398;2024-02-16T10:46:45;21.05;;;13.07;;
40453;SDS011;26160;51.858;4.398;2024-02-16T10:49:11;26.45;;;12.98;;
40453;SDS011;26160;51.858;4.398;2024-02-16T10:51:42;24.08;;;11.70;;
40453;SDS011;26160;51.858;4.398;2024-02-16T10:54:12;20.23;;;13.07;;
40453;SDS011;26160;51.858;4.398;2024-02-16T10:56:42;22.02;;;14.27;;
40453;SDS011;26160;51.858;4.398;2024-02-16T10:59:09;23.10;;;14.13;;
40453;SDS011;26160;51.858;4.398;2024-02-16T11:01:41;26.60;;;15.23;;
40453;SDS011;26160;51.858;4.398;2024-02-16T11:04:08;27.25;;;15.52;;
40453;SDS011;26160;51.858;4.398;2024-02-16T11:06:48;23.13;;;14.65;;
40453;SDS011;26160;51.858;4.398;2024-02-16T11:09:25;21.20;;;13.88;;
40453;SDS011;26160;51.858;4.398;2024-02-16T11:12:02;22.58;;;12.27;;
40453;SDS011;26160;51.858;4.398;2024-02-16T11:17:15;18.63;;;11.73;;
40453;SDS011;26160;51.858;4.398;2024-02-16T11:19:47;22.75;;;14.55;;
40453;SDS011;26160;51.858;4.398;2024-02-16T11:22:19;21.55;;;13.10;;
40453;SDS011;26160;51.858;4.398;2024-02-16T11:24:47;16.65;;;12.57;;
40453;SDS011;26160;51.858;4.398;2024-02-16T11:27:14;17.42;;;11.65;;
40453;SDS011;26160;51.858;4.398;2024-02-16T11:29:44;17.92;;;10.43;;
40453;SDS011;26160;51.858;4.398;2024-02-16T11:32:12;14.30;;;10.85;;
40453;SDS011;26160;51.858;4.398;2024-02-16T11:34:38;17.48;;;12.15;;
40453;SDS011;26160;51.858;4.398;2024-02-16T11:37:04;14.32;;;10.13;;
40453;SDS011;26160;51.858;4.398;2024-02-16T11:39:31;14.82;;;10.10;;
40453;SDS011;26160;51.858;4.398;2024-02-16T11:42:03;11.63;;;8.65;;
40453;SDS011;26160;51.858;4.398;2024-02-16T11:44:30;10.23;;;7.38;;
40453;SDS011;26160;51.858;4.398;2024-02-16T11:46:58;13.75;;;8.70;;
40453;SDS011;26160;51.858;4.398;2024-02-16T11:49:25;11.38;;;8.20;;
40453;SDS011;26160;51.858;4.398;2024-02-16T11:51:52;11.13;;;7.95;;
40453;SDS011;26160;51.858;4.398;2024-02-16T11:54:19;10.30;;;7.45;;
40453;SDS011;26160;51.858;4.398;2024-02-16T11:56:46;10.50;;;8.27;;
40453;SDS011;26160;51.858;4.398;2024-02-16T11:59:14;11.57;;;7.72;;
40453;SDS011;26160;51.858;4.398;2024-02-16T12:01:51;11.18;;;7.10;;
40453;SDS011;26160;51.858;4.398;2024-02-16T12:04:19;12.48;;;6.97;;
40453;SDS011;26160;51.858;4.398;2024-02-16T12:06:50;9.82;;;6.80;;
40453;SDS011;26160;51.858;4.398;2024-02-16T12:09:25;11.93;;;6.45;;
40453;SDS011;26160;51.858;4.398;2024-02-16T12:11:54;8.23;;;5.70;;
40453;SDS011;26160;51.858;4.398;2024-02-16T12:14:21;9.75;;;5.40;;
40453;SDS011;26160;51.858;4.398;2024-02-16T12:16:57;5.40;;;4.47;;
40453;SDS011;26160;51.858;4.398;2024-02-16T12:19:24;8.32;;;4.82;;
40453;SDS011;26160;51.858;4.398;2024-02-16T12:21:51;7.80;;;4.80;;
40453;SDS011;26160;51.858;4.398;2024-02-16T12:26:53;14.43;;;7.60;;
40453;SDS011;26160;51.858;4.398;2024-02-16T12:29:20;13.32;;;8.18;;
40453;SDS011;26160;51.858;4.398;2024-02-16T12:31:47;15.38;;;7.85;;
40453;SDS011;26160;51.858;4.398;2024-02-16T12:34:16;10.20;;;6.43;;
40453;SDS011;26160;51.858;4.398;2024-02-16T12:36:42;8.10;;;5.80;;
40453;SDS011;26160;51.858;4.398;2024-02-16T12:39:21;8.35;;;5.55;;
40453;SDS011;26160;51.858;4.398;2024-02-16T12:44:48;12.52;;;6.03;;
40453;SDS011;26160;51.858;4.398;2024-02-16T12:47:17;9.98;;;5.57;;
40453;SDS011;26160;51.858;4.398;2024-02-16T12:49:43;10.27;;;5.97;;
40453;SDS011;26160;51.858;4.398;2024-02-16T12:52:11;7.15;;;5.05;;
40453;SDS011;26160;51.858;4.398;2024-02-16T12:54:48;8.40;;;5.70;;
40453;SDS011;26160;51.858;4.398;2024-02-16T12:57:14;7.15;;;5.05;;
40453;SDS011;26160;51.858;4.398;2024-02-16T12:59:40;6.85;;;5.10;;
40453;SDS011;26160;51.858;4.398;2024-02-16T13:02:06;5.63;;;4.78;;
40453;SDS011;26160;51.858;4.398;2024-02-16T13:04:32;7.05;;;4.63;;
40453;SDS011;26160;51.858;4.398;2024-02-16T13:06:59;7.82;;;5.00;;
40453;SDS011;26160;51.858;4.398;2024-02-16T13:09:25;6.25;;;4.50;;
40453;SDS011;26160;51.858;4.398;2024-02-16T13:11:54;12.00;;;5.25;;
40453;SDS011;26160;51.858;4.398;2024-02-16T13:14:21;7.20;;;4.68;;
40453;SDS011;26160;51.858;4.398;2024-02-16T13:16:47;8.20;;;4.95;;
40453;SDS011;26160;51.858;4.398;2024-02-16T13:19:15;8.05;;;4.53;;
40453;SDS011;26160;51.858;4.398;2024-02-16T13:21:43;7.55;;;4.22;;
40453;SDS011;26160;51.858;4.398;2024-02-16T13:24:10;7.40;;;4.53;;
40453;SDS011;26160;51.858;4.398;2024-02-16T13:26:36;6.95;;;4.45;;
40453;SDS011;26160;51.858;4.398;2024-02-16T13:29:02;7.63;;;4.78;;
40453;SDS011;26160;51.858;4.398;2024-02-16T13:31:28;8.95;;;4.80;;
40453;SDS011;26160;51.858;4.398;2024-02-16T13:33:55;9.13;;;4.30;;
40453;SDS011;26160;51.858;4.398;2024-02-16T13:36:21;7.50;;;4.78;;
40453;SDS011;26160;51.858;4.398;2024-02-16T13:38:47;8.57;;;5.75;;
40453;SDS011;26160;51.858;4.398;2024-02-16T13:41:13;9.45;;;5.15;;
40453;SDS011;26160;51.858;4.398;2024-02-16T13:43:40;9.88;;;5.22;;
40453;SDS011;26160;51.858;4.398;2024-02-16T13:46:06;8.98;;;6.40;;
40453;SDS011;26160;51.858;4.398;2024-02-16T13:48:32;8.63;;;6.00;;
40453;SDS011;26160;51.858;4.398;2024-02-16T13:50:58;10.05;;;6.63;;
40453;SDS011;26160;51.858;4.398;2024-02-16T13:53:25;11.63;;;6.70;;
40453;SDS011;26160;51.858;4.398;2024-02-16T13:55:51;11.73;;;6.40;;
40453;SDS011;26160;51.858;4.398;2024-02-16T13:58:17;9.00;;;6.35;;
40453;SDS011;26160;51.858;4.398;2024-02-16T14:00:44;9.43;;;5.95;;
40453;SDS011;26160;51.858;4.398;2024-02-16T14:03:10;9.70;;;5.97;;
40453;SDS011;26160;51.858;4.398;2024-02-16T14:05:39;11.15;;;5.28;;
40453;SDS011;26160;51.858;4.398;2024-02-16T14:08:07;8.27;;;5.28;;
40453;SDS011;26160;51.858;4.398;2024-02-16T14:10:35;14.07;;;5.50;;
40453;SDS011;26160;51.858;4.398;2024-02-16T14:13:01;6.88;;;4.70;;
40453;SDS011;26160;51.858;4.398;2024-02-16T14:15:27;8.05;;;4.82;;
40453;SDS011;26160;51.858;4.398;2024-02-16T14:17:54;9.85;;;4.68;;
40453;SDS011;26160;51.858;4.398;2024-02-16T14:20:20;10.27;;;4.55;;
40453;SDS011;26160;51.858;4.398;2024-02-16T14:22:48;6.72;;;4.65;;
40453;SDS011;26160;51.858;4.398;2024-02-16T14:25:14;7.40;;;4.45;;
40453;SDS011;26160;51.858;4.398;2024-02-16T14:27:42;8.25;;;4.00;;
40453;SDS011;26160;51.858;4.398;2024-02-16T14:30:12;8.40;;;4.47;;
40453;SDS011;26160;51.858;4.398;2024-02-16T14:32:38;8.98;;;4.55;;
40453;SDS011;26160;51.858;4.398;2024-02-16T14:35:06;6.05;;;4.07;;
40453;SDS011;26160;51.858;4.398;2024-02-16T14:37:33;7.40;;;4.43;;
40453;SDS011;26160;51.858;4.398;2024-02-16T14:39:59;8.15;;;3.63;;
40453;SDS011;26160;51.858;4.398;2024-02-16T14:42:26;6.60;;;3.80;;
40453;SDS011;26160;51.858;4.398;2024-02-16T14:44:54;9.95;;;4.45;;
40453;SDS011;26160;51.858;4.398;2024-02-16T14:47:20;9.98;;;4.65;;
40453;SDS011;26160;51.858;4.398;2024-02-16T14:49:47;6.47;;;3.80;;
40453;SDS011;26160;51.858;4.398;2024-02-16T14:52:14;6.93;;;4.10;;
40453;SDS011;26160;51.858;4.398;2024-02-16T14:54:40;9.02;;;4.40;;
40453;SDS011;26160;51.858;4.398;2024-02-16T14:57:07;8.05;;;4.10;;
40453;SDS011;26160;51.858;4.398;2024-02-16T14:59:33;5.95;;;3.72;;
40453;SDS011;26160;51.858;4.398;2024-02-16T15:01:59;8.15;;;3.55;;
40453;SDS011;26160;51.858;4.398;2024-02-16T15:04:27;7.65;;;3.63;;
40453;SDS011;26160;51.858;4.398;2024-02-16T15:06:54;7.47;;;4.05;;
40453;SDS011;26160;51.858;4.398;2024-02-16T15:09:21;6.88;;;4.13;;
40453;SDS011;26160;51.858;4.398;2024-02-16T15:11:47;7.20;;;3.75;;
40453;SDS011;26160;51.858;4.398;2024-02-16T15:14:13;5.78;;;3.45;;
40453;SDS011;26160;51.858;4.398;2024-02-16T15:16:40;6.10;;;3.70;;
40453;SDS011;26160;51.858;4.398;2024-02-16T15:19:06;7.55;;;3.55;;
40453;SDS011;26160;51.858;4.398;2024-02-16T15:21:32;12.02;;;3.67;;
40453;SDS011;26160;51.858;4.398;2024-02-16T15:23:59;7.65;;;3.45;;
40453;SDS011;26160;51.858;4.398;2024-02-16T15:26:26;7.82;;;3.25;;
40453;SDS011;26160;51.858;4.398;2024-02-16T15:28:52;7.85;;;3.85;;
40453;SDS011;26160;51.858;4.398;2024-02-16T15:31:18;8.13;;;3.55;;
40453;SDS011;26160;51.858;4.398;2024-02-16T15:33:44;6.50;;;2.72;;
40453;SDS011;26160;51.858;4.398;2024-02-16T15:36:10;10.93;;;3.15;;
40453;SDS011;26160;51.858;4.398;2024-02-16T15:38:37;8.30;;;3.03;;
40453;SDS011;26160;51.858;4.398;2024-02-16T15:41:03;3.88;;;2.20;;
40453;SDS011;26160;51.858;4.398;2024-02-16T15:43:29;5.32;;;2.60;;
40453;SDS011;26160;51.858;4.398;2024-02-16T15:45:55;6.45;;;2.65;;
40453;SDS011;26160;51.858;4.398;2024-02-16T15:48:22;5.40;;;2.40;;
40453;SDS011;26160;51.858;4.398;2024-02-16T15:50:50;7.93;;;3.47;;
40453;SDS011;26160;51.858;4.398;2024-02-16T15:53:16;5.95;;;2.25;;
40453;SDS011;26160;51.858;4.398;2024-02-16T15:55:43;7.18;;;2.45;;
40453;SDS011;26160;51.858;4.398;2024-02-16T15:58:09;6.93;;;2.28;;
40453;SDS011;26160;51.858;4.398;2024-02-16T16:00:35;7.72;;;2.50;;
40453;SDS011;26160;51.858;4.398;2024-02-16T16:03:02;4.95;;;2.47;;
40453;SDS011;26160;51.858;4.398;2024-02-16T16:05:28;11.50;;;3.20;;
40453;SDS011;26160;51.858;4.398;2024-02-16T16:07:55;7.22;;;2.63;;
40453;SDS011;26160;51.858;4.398;2024-02-16T16:10:21;5.25;;;2.50;;
40453;SDS011;26160;51.858;4.398;2024-02-16T16:12:47;8.05;;;2.38;;
40453;SDS011;26160;51.858;4.398;2024-02-16T16:15:14;7.35;;;2.22;;
40453;SDS011;26160;51.858;4.398;2024-02-16T16:17:41;7.63;;;2.40;;
40453;SDS011;26160;51.858;4.398;2024-02-16T16:20:07;4.90;;;2.58;;
40453;SDS011;26160;51.858;4.398;2024-02-16T16:22:33;6.10;;;2.30;;
40453;SDS011;26160;51.858;4.398;2024-02-16T16:25:00;5.38;;;2.83;;
40453;SDS011;26160;51.858;4.398;2024-02-16T16:27:26;4.70;;;2.90;;
40453;SDS011;26160;51.858;4.398;2024-02-16T16:29:53;10.20;;;3.35;;
40453;SDS011;26160;51.858;4.398;2024-02-16T16:32:19;8.85;;;3.25;;
40453;SDS011;26160;51.858;4.398;2024-02-16T16:34:45;4.57;;;3.13;;
40453;SDS011;26160;51.858;4.398;2024-02-16T16:37:11;8.68;;;3.53;;
40453;SDS011;26160;51.858;4.398;2024-02-16T16:39:38;6.13;;;3.42;;
40453;SDS011;26160;51.858;4.398;2024-02-16T16:42:04;9.13;;;4.60;;
40453;SDS011;26160;51.858;4.398;2024-02-16T16:44:30;10.43;;;5.05;;
40453;SDS011;26160;51.858;4.398;2024-02-16T16:46:57;8.75;;;4.43;;
40453;SDS011;26160;51.858;4.398;2024-02-16T16:49:23;11.70;;;5.18;;
40453;SDS011;26160;51.858;4.398;2024-02-16T16:51:50;9.90;;;4.70;;
40453;SDS011;26160;51.858;4.398;2024-02-16T16:54:16;9.80;;;3.67;;
40453;SDS011;26160;51.858;4.398;2024-02-16T16:56:42;7.53;;;3.38;;
40453;SDS011;26160;51.858;4.398;2024-02-16T16:59:09;9.52;;;3.42;;
40453;SDS011;26160;51.858;4.398;2024-02-16T17:01:37;6.97;;;3.67;;
40453;SDS011;26160;51.858;4.398;2024-02-16T17:04:04;9.85;;;3.97;;
40453;SDS011;26160;51.858;4.398;2024-02-16T17:06:30;9.55;;;3.58;;
40453;SDS011;26160;51.858;4.398;2024-02-16T17:08:56;10.65;;;3.40;;
40453;SDS011;26160;51.858;4.398;2024-02-16T17:11:23;6.63;;;2.80;;
40453;SDS011;26160;51.858;4.398;2024-02-16T17:13:49;8.70;;;3.08;;
40453;SDS011;26160;51.858;4.398;2024-02-16T17:16:15;7.70;;;3.03;;
40453;SDS011;26160;51.858;4.398;2024-02-16T17:18:41;6.03;;;3.05;;
40453;SDS011;26160;51.858;4.398;2024-02-16T17:21:07;5.68;;;2.63;;
40453;SDS011;26160;51.858;4.398;2024-02-16T17:23:33;6.80;;;2.92;;
40453;SDS011;26160;51.858;4.398;2024-02-16T17:26:00;9.00;;;4.20;;
40453;SDS011;26160;51.858;4.398;2024-02-16T17:28:26;6.17;;;2.83;;
40453;SDS011;26160;51.858;4.398;2024-02-16T17:30:52;8.77;;;3.33;;
40453;SDS011;26160;51.858;4.398;2024-02-16T17:33:18;9.30;;;4.07;;
40453;SDS011;26160;51.858;4.398;2024-02-16T17:35:47;10.80;;;4.30;;
40453;SDS011;26160;51.858;4.398;2024-02-16T17:38:14;9.38;;;4.28;;
40453;SDS011;26160;51.858;4.398;2024-02-16T17:40:41;9.13;;;3.95;;
40453;SDS011;26160;51.858;4.398;2024-02-16T17:43:07;7.45;;;3.10;;